Time;durP1;ratioP1;P1;durP2;ratioP2;P2;SDS_P1;SDS_P2;PMS_P1;PMS_P2;Temp;Humidity;BMP_temperature;BMP_pressure;BME280_temperature;BME280_humidity;BME280_pressure;Samples;Min_cycle;Max_cycle;Signal;HPM_P1;HPM_P2
2023/05/08 00:00:39;;;;;;;24.05;21.77;;;12.20;99.90;;;;;;5036446;28;20051;-40
2023/05/08 00:03:05;;;;;;;23.13;21.08;;;12.20;99.90;;;;;;5035600;28;20055;-36
2023/05/08 00:05:30;;;;;;;23.70;21.05;;;12.20;99.90;;;;;;5037377;28;20085;-48
2023/05/08 00:08:00;;;;;;;22.48;20.58;;;12.10;99.90;;;;;;5038135;28;20045;-46
2023/05/08 00:10:29;;;;;;;22.42;20.42;;;12.10;99.90;;;;;;5036720;28;20045;-42
2023/05/08 00:12:55;;;;;;;22.55;20.38;;;12.10;99.90;;;;;;5038126;28;20049;-35
2023/05/08 00:15:21;;;;;;;23.25;21.08;;;12.10;99.90;;;;;;5037480;28;20059;-41
2023/05/08 00:17:47;;;;;;;22.58;20.63;;;12.10;99.90;;;;;;5019800;28;20419;-40
2023/05/08 00:20:13;;;;;;;22.52;20.40;;;12.10;99.90;;;;;;5035775;28;20044;-44
2023/05/08 00:22:39;;;;;;;21.90;19.80;;;12.10;99.90;;;;;;5037649;28;20056;-37
2023/05/08 00:25:05;;;;;;;23.05;20.83;;;12.00;99.90;;;;;;5036772;28;20049;-39
2023/05/08 00:27:31;;;;;;;23.73;21.73;;;12.00;99.90;;;;;;5037464;28;20128;-43
2023/05/08 00:29:57;;;;;;;22.55;20.55;;;12.00;99.90;;;;;;5036712;28;20117;-43
2023/05/08 00:32:35;;;;;;;23.40;21.20;;;12.00;99.90;;;;;;5018722;28;20308;-38
2023/05/08 00:35:01;;;;;;;22.05;20.05;;;11.90;99.90;;;;;;5034091;28;20060;-44
2023/05/08 00:37:26;;;;;;;24.58;22.27;;;11.90;99.90;;;;;;5019479;28;20053;-41
2023/05/08 00:39:52;;;;;;;23.38;21.27;;;11.90;99.90;;;;;;5035630;28;20049;-42
2023/05/08 00:42:18;;;;;;;22.48;20.27;;;11.90;99.90;;;;;;5025844;28;20128;-47
2023/05/08 00:44:44;;;;;;;22.90;20.65;;;11.90;99.90;;;;;;5019256;28;20495;-43
2023/05/08 00:47:10;;;;;;;22.13;20.02;;;11.80;99.90;;;;;;5036474;28;20045;-43
2023/05/08 00:49:36;;;;;;;23.15;20.92;;;11.80;99.90;;;;;;5035313;28;20051;-41
2023/05/08 00:52:07;;;;;;;24.60;22.15;;;11.80;99.90;;;;;;5008283;28;20132;-40
2023/05/08 00:54:34;;;;;;;23.98;21.77;;;11.80;99.90;;;;;;5035088;28;20119;-42
2023/05/08 00:57:00;;;;;;;23.05;20.83;;;11.80;99.90;;;;;;5036573;28;20064;-45
2023/05/08 00:59:26;;;;;;;23.83;21.42;;;11.80;99.90;;;;;;5034549;28;20057;-38
2023/05/08 01:01:52;;;;;;;22.23;20.13;;;11.70;99.90;;;;;;5035875;28;20140;-46
2023/05/08 01:04:23;;;;;;;21.23;19.33;;;11.70;99.90;;;;;;5036036;28;20055;-42
2023/05/08 01:06:49;;;;;;;22.88;20.75;;;11.70;99.90;;;;;;5036061;28;20735;-38
2023/05/08 01:09:14;;;;;;;22.50;20.40;;;11.70;99.90;;;;;;5034638;28;20051;-38
2023/05/08 01:12:03;;;;;;;22.90;20.73;;;11.70;99.90;;;;;;5036152;28;20049;-42
2023/05/08 01:14:55;;;;;;;22.38;20.27;;;11.60;99.90;;;;;;5030479;28;20084;-35
2023/05/08 01:17:37;;;;;;;22.67;20.38;;;11.60;99.90;;;;;;5018175;28;20045;-42
2023/05/08 01:20:27;;;;;;;24.38;21.98;;;11.60;99.90;;;;;;5014651;28;20620;-36
2023/05/08 01:23:27;;;;;;;24.17;21.67;;;11.50;99.90;;;;;;5028338;28;20045;-36
2023/05/08 01:26:08;;;;;;;24.08;21.77;;;11.50;99.90;;;;;;5036194;28;20177;-39
2023/05/08 01:29:12;;;;;;;23.70;21.50;;;11.50;99.90;;;;;;5022289;28;20045;-43
2023/05/08 01:31:56;;;;;;;;;;;11.40;99.90;;;;;;4955311;28;20073;-44
2023/05/08 01:34:30;;;;;;;;;;;11.40;99.90;;;;;;4954511;28;19965;-36
2023/05/08 01:36:58;;;;;;;;;;;11.40;99.90;;;;;;4955307;28;19972;-41
2023/05/08 01:39:49;;;;;;;24.80;22.30;;;11.40;99.90;;;;;;4937441;28;19928;-36
2023/05/08 01:42:44;;;;;;;22.75;20.63;;;11.30;99.90;;;;;;4954508;28;20050;-38
2023/05/08 01:45:37;;;;;;;24.90;22.27;;;11.30;99.90;;;;;;4954502;28;20155;-35
2023/05/08 01:48:10;;;;;;;24.02;21.83;;;11.30;99.90;;;;;;4895993;29;20056;-39
2023/05/08 01:50:43;;;;;;;24.33;21.92;;;11.30;99.90;;;;;;4896908;29;20061;-42
2023/05/08 01:53:20;;;;;;;26.40;23.80;;;11.30;99.90;;;;;;4882917;29;20072;-36
2023/05/08 01:55:47;;;;;;;24.67;22.27;;;11.20;99.90;;;;;;4897205;29;20056;-45
2023/05/08 01:58:14;;;;;;;25.85;23.35;;;11.20;99.90;;;;;;4896124;29;20055;-42
2023/05/08 02:00:41;;;;;;;24.73;22.30;;;11.20;99.90;;;;;;4894773;29;20052;-40
2023/05/08 02:03:10;;;;;;;25.15;22.70;;;11.20;99.90;;;;;;4889640;29;20060;-46
2023/05/08 02:05:36;;;;;;;25.05;22.65;;;11.10;99.90;;;;;;4930339;28;20089;-44
2023/05/08 02:08:03;;;;;;;25.15;22.60;;;11.10;99.90;;;;;;4956076;28;20149;-46
2023/05/08 02:10:30;;;;;;;24.70;22.40;;;11.10;99.90;;;;;;4973185;28;20062;-41
2023/05/08 02:12:58;;;;;;;26.38;23.95;;;11.10;99.90;;;;;;4971619;28;20047;-40
2023/05/08 02:15:25;;;;;;;25.95;23.50;;;11.10;99.90;;;;;;4972590;28;20100;-36
2023/05/08 02:17:53;;;;;;;25.40;23.02;;;11.10;99.90;;;;;;4973183;28;20156;-43
2023/05/08 02:20:20;;;;;;;26.05;23.58;;;11.10;99.90;;;;;;4972964;28;20090;-37
2023/05/08 02:22:49;;;;;;;26.25;23.58;;;11.10;99.90;;;;;;4973397;28;20093;-44
2023/05/08 02:25:16;;;;;;;25.65;23.08;;;11.10;99.90;;;;;;4988996;28;20064;-36
2023/05/08 02:27:45;;;;;;;25.60;23.08;;;11.10;99.90;;;;;;5034958;28;20892;-46
2023/05/08 02:30:15;;;;;;;24.27;21.98;;;11.20;99.90;;;;;;5033445;28;20049;-42
2023/05/08 02:32:46;;;;;;;25.67;23.27;;;11.20;99.90;;;;;;5022088;28;20096;-45
2023/05/08 02:35:15;;;;;;;26.17;23.67;;;11.20;99.90;;;;;;5034957;28;20979;-41
2023/05/08 02:37:43;;;;;;;24.77;22.48;;;11.30;99.90;;;;;;5017510;28;20049;-39
2023/05/08 02:40:10;;;;;;;27.10;24.60;;;11.30;99.90;;;;;;5033296;28;20060;-43
2023/05/08 02:42:36;;;;;;;25.27;22.80;;;11.30;99.90;;;;;;5035336;28;20052;-36
2023/05/08 02:45:03;;;;;;;26.88;24.08;;;11.30;99.90;;;;;;5021055;28;20100;-42
2023/05/08 02:47:58;;;;;;;27.05;24.27;;;11.30;99.90;;;;;;5025739;28;20060;-39
2023/05/08 02:50:42;;;;;;;25.67;23.35;;;11.30;99.90;;;;;;5034158;28;20461;-36
2023/05/08 02:53:10;;;;;;;;;;;11.40;99.90;;;;;;5022186;28;20141;-44
2023/05/08 02:55:51;;;;;;;26.65;24.05;;;11.40;99.90;;;;;;5035070;28;19921;-42
2023/05/08 02:58:23;;;;;;;27.30;24.77;;;11.40;99.90;;;;;;5015325;28;20206;-42
2023/05/08 03:01:06;;;;;;;27.50;24.73;;;11.40;99.90;;;;;;5033913;28;20064;-46
2023/05/08 03:03:44;;;;;;;27.30;24.63;;;11.40;99.90;;;;;;5034812;28;20513;-41
2023/05/08 03:06:20;;;;;;;27.40;24.80;;;11.40;99.90;;;;;;5034222;28;20049;-41
2023/05/08 03:08:47;;;;;;;26.27;23.75;;;11.40;99.90;;;;;;5015574;28;20067;-43
2023/05/08 03:11:27;;;;;;;27.25;24.67;;;11.30;99.90;;;;;;5015804;28;20159;-44
2023/05/08 03:13:57;;;;;;;27.75;25.05;;;11.30;99.90;;;;;;5032032;28;20107;-44
2023/05/08 03:16:26;;;;;;;27.52;24.92;;;11.30;99.90;;;;;;5034909;28;20055;-38
2023/05/08 03:19:02;;;;;;;26.98;24.38;;;11.30;99.90;;;;;;5033857;28;20122;-46
2023/05/08 03:21:29;;;;;;;26.50;24.10;;;11.30;99.90;;;;;;5017558;28;20057;-44
2023/05/08 03:23:57;;;;;;;27.60;24.92;;;11.30;99.90;;;;;;5010479;28;20049;-38
2023/05/08 03:26:23;;;;;;;27.15;24.50;;;11.30;99.90;;;;;;5032248;28;20052;-41
2023/05/08 03:28:50;;;;;;;27.35;24.67;;;11.30;99.90;;;;;;5037692;28;20041;-42
2023/05/08 03:31:19;;;;;;;28.27;25.35;;;11.30;99.90;;;;;;5038307;28;20041;-42
2023/05/08 03:33:47;;;;;;;26.00;23.60;;;11.20;99.90;;;;;;5037529;28;20045;-41
2023/05/08 03:36:16;;;;;;;26.38;23.73;;;11.30;99.90;;;;;;5037835;28;20064;-42
2023/05/08 03:38:42;;;;;;;28.50;25.77;;;11.20;99.90;;;;;;5037355;28;20060;-39
2023/05/08 03:41:08;;;;;;;25.55;23.05;;;11.20;99.90;;;;;;5037626;28;20426;-46
2023/05/08 03:43:36;;;;;;;26.23;23.83;;;11.20;99.90;;;;;;5038309;28;20828;-40
2023/05/08 03:46:03;;;;;;;26.92;24.23;;;11.20;99.90;;;;;;5019373;28;20052;-43
2023/05/08 03:48:32;;;;;;;26.90;24.27;;;11.10;99.90;;;;;;5019883;28;20453;-40
2023/05/08 03:51:00;;;;;;;27.10;24.45;;;11.10;99.90;;;;;;5032906;28;20106;-45
2023/05/08 03:53:27;;;;;;;26.73;24.02;;;11.00;99.90;;;;;;5038070;28;20052;-38
2023/05/08 03:55:53;;;;;;;26.52;23.92;;;11.00;99.90;;;;;;5019775;28;20337;-41
2023/05/08 03:58:34;;;;;;;26.60;24.05;;;11.00;99.90;;;;;;5008945;28;20499;-39
2023/05/08 04:01:10;;;;;;;26.83;24.23;;;11.00;99.90;;;;;;5033068;28;20056;-43
2023/05/08 04:03:52;;;;;;;24.65;22.30;;;10.90;99.90;;;;;;5035662;28;20037;-36
2023/05/08 04:06:53;;;;;;;24.75;22.35;;;10.90;99.90;;;;;;5032375;28;20049;-43
2023/05/08 04:09:36;;;;;;;27.15;24.55;;;10.80;99.90;;;;;;4954245;28;20058;-40
2023/05/08 04:12:11;;;;;;;25.50;23.00;;;10.80;99.90;;;;;;4955404;28;20065;-38
2023/05/08 04:15:07;;;;;;;26.08;23.48;;;10.80;99.90;;;;;;4955934;28;20176;-44
2023/05/08 04:17:38;;;;;;;25.40;23.00;;;10.90;99.90;;;;;;4955025;28;20059;-41
2023/05/08 04:20:05;;;;;;;26.20;23.45;;;10.90;99.90;;;;;;4954363;28;20067;-41
2023/05/08 04:22:32;;;;;;;25.35;22.85;;;10.90;99.90;;;;;;4939445;28;20082;-43
2023/05/08 04:25:02;;;;;;;25.10;22.70;;;10.90;99.90;;;;;;4955429;28;20101;-42
2023/05/08 04:27:29;;;;;;;25.27;22.95;;;10.90;99.90;;;;;;4936975;28;20563;-43
2023/05/08 04:29:55;;;;;;;25.85;23.35;;;10.90;99.90;;;;;;4952034;28;20555;-40
2023/05/08 04:32:21;;;;;;;24.95;22.50;;;11.00;99.90;;;;;;4954986;28;20065;-37
2023/05/08 04:34:48;;;;;;;24.45;22.15;;;11.00;99.90;;;;;;4954481;28;20811;-43
2023/05/08 04:37:27;;;;;;;24.67;22.25;;;11.10;99.90;;;;;;4939497;28;20425;-37
2023/05/08 04:39:53;;;;;;;25.48;23.08;;;11.20;99.90;;;;;;4954437;28;20780;-43
2023/05/08 04:42:20;;;;;;;24.20;22.08;;;11.20;99.90;;;;;;4939258;28;20042;-36
2023/05/08 04:44:46;;;;;;;23.85;21.65;;;11.70;99.90;;;;;;4986553;28;20853;-40
2023/05/08 04:47:13;;;;;;;22.83;20.73;;;12.50;99.90;;;;;;5009415;28;20127;-43
2023/05/08 04:49:38;;;;;;;22.52;20.38;;;13.40;99.90;;;;;;5035688;28;20124;-36
2023/05/08 04:52:05;;;;;;;22.10;20.10;;;14.20;99.90;;;;;;5026324;28;20075;-36
2023/05/08 04:54:31;;;;;;;22.52;20.42;;;14.90;99.90;;;;;;5017187;28;20099;-47
2023/05/08 04:56:57;;;;;;;20.90;19.20;;;15.70;99.90;;;;;;5037050;28;20053;-43
2023/05/08 04:59:23;;;;;;;21.58;19.45;;;16.40;99.90;;;;;;5035397;28;20088;-44
2023/05/08 05:01:49;;;;;;;20.00;18.30;;;17.00;99.90;;;;;;5016086;28;20056;-37
2023/05/08 05:04:15;;;;;;;19.50;17.70;;;17.40;99.90;;;;;;5035854;28;20041;-44
2023/05/08 05:06:41;;;;;;;19.15;17.45;;;17.70;99.90;;;;;;5036424;28;20095;-42
2023/05/08 05:09:06;;;;;;;18.73;17.20;;;18.10;99.90;;;;;;5035061;28;20049;-44
2023/05/08 05:11:32;;;;;;;18.52;16.63;;;18.30;99.90;;;;;;5036586;28;20060;-43
2023/05/08 05:13:58;;;;;;;19.00;17.40;;;18.70;99.90;;;;;;5036655;28;20045;-43
2023/05/08 05:16:23;;;;;;;18.33;16.63;;;18.90;99.90;;;;;;5018570;28;20044;-38
2023/05/08 05:18:49;;;;;;;18.00;16.50;;;19.10;99.90;;;;;;5034632;28;20099;-39
2023/05/08 05:21:15;;;;;;;18.15;16.52;;;19.40;99.90;;;;;;5018567;28;20057;-42
2023/05/08 05:23:41;;;;;;;16.38;14.98;;;19.80;99.90;;;;;;5036341;28;20044;-43
2023/05/08 05:26:06;;;;;;;16.60;15.20;;;20.00;99.90;;;;;;5036322;28;20048;-46
2023/05/08 05:28:32;;;;;;;16.70;15.30;;;20.30;99.90;;;;;;5030768;28;20171;-43
2023/05/08 05:30:59;;;;;;;16.85;15.43;;;20.60;99.90;;;;;;5027531;28;20045;-44
2023/05/08 05:33:24;;;;;;;16.23;14.88;;;20.80;99.90;;;;;;5000263;28;20045;-38
2023/05/08 05:35:50;;;;;;;17.95;16.30;;;21.10;99.90;;;;;;5036253;28;20044;-43
2023/05/08 05:38:16;;;;;;;17.33;15.90;;;21.30;99.90;;;;;;5035602;28;20503;-48
2023/05/08 05:40:42;;;;;;;18.05;16.58;;;21.80;99.90;;;;;;5035742;28;20862;-45
2023/05/08 05:43:07;;;;;;;16.98;15.57;;;22.30;99.90;;;;;;5035746;28;20053;-47
2023/05/08 05:45:33;;;;;;;16.75;15.35;;;22.80;99.90;;;;;;5036054;28;20056;-48
2023/05/08 05:47:59;;;;;;;17.13;15.82;;;23.40;99.90;;;;;;5030709;28;20518;-44
2023/05/08 05:50:26;;;;;;;16.13;14.80;;;23.40;99.90;;;;;;5029680;28;20037;-37
2023/05/08 05:52:52;;;;;;;15.63;14.32;;;23.60;99.90;;;;;;5035863;28;20101;-45
2023/05/08 05:55:17;;;;;;;16.15;14.77;;;23.90;99.90;;;;;;5018309;28;20045;-47
2023/05/08 05:57:43;;;;;;;16.85;15.45;;;23.60;99.90;;;;;;5035536;28;20080;-44
2023/05/08 06:00:10;;;;;;;16.35;15.02;;;23.00;99.90;;;;;;5034695;28;20568;-38
2023/05/08 06:02:36;;;;;;;15.35;14.15;;;22.60;99.90;;;;;;5035536;28;20092;-41
2023/05/08 06:05:02;;;;;;;15.15;14.05;;;22.60;99.90;;;;;;5036004;28;20143;-45
2023/05/08 06:07:28;;;;;;;16.20;14.82;;;22.80;99.90;;;;;;5017455;28;20566;-48
2023/05/08 06:09:55;;;;;;;15.18;13.98;;;23.10;99.90;;;;;;5005669;28;20046;-41
2023/05/08 06:12:20;;;;;;;14.98;13.82;;;23.60;99.90;;;;;;5015411;28;20049;-39
2023/05/08 06:14:46;;;;;;;16.05;14.75;;;24.10;99.90;;;;;;5034750;28;20056;-45
2023/05/08 06:17:12;;;;;;;14.85;13.63;;;24.00;99.90;;;;;;5007207;28;20512;-46
2023/05/08 06:19:38;;;;;;;15.02;13.88;;;24.00;99.90;;;;;;5014656;28;20495;-46
2023/05/08 06:22:03;;;;;;;15.68;14.45;;;24.00;99.90;;;;;;5032883;28;20049;-40
2023/05/08 06:24:29;;;;;;;15.68;14.35;;;23.30;99.90;;;;;;5035285;28;20033;-40
2023/05/08 06:26:55;;;;;;;15.38;14.18;;;22.30;99.90;;;;;;5005471;28;20052;-45
2023/05/08 06:29:21;;;;;;;16.13;14.85;;;21.20;99.90;;;;;;5032621;28;20049;-45
2023/05/08 06:31:46;;;;;;;15.20;14.00;;;20.90;99.90;;;;;;5033295;28;20955;-45
2023/05/08 06:34:12;;;;;;;15.30;14.10;;;21.40;99.90;;;;;;4999988;28;20132;-48
2023/05/08 06:36:38;;;;;;;14.82;13.73;;;22.40;99.90;;;;;;5033111;28;20605;-47
2023/05/08 06:39:05;;;;;;;14.77;13.40;;;23.00;99.90;;;;;;5014682;28;20415;-44
2023/05/08 06:41:31;;;;;;;15.13;13.93;;;23.00;99.90;;;;;;5034435;28;20048;-47
2023/05/08 06:43:56;;;;;;;15.32;14.02;;;22.90;99.90;;;;;;5035499;28;20268;-39
2023/05/08 06:46:22;;;;;;;16.38;14.85;;;22.60;99.90;;;;;;5034931;28;20559;-49
2023/05/08 06:48:48;;;;;;;15.50;14.30;;;22.20;99.90;;;;;;5034109;28;20045;-47
2023/05/08 06:51:13;;;;;;;15.35;14.15;;;21.40;99.90;;;;;;5017576;28;20135;-43
2023/05/08 06:53:39;;;;;;;15.70;14.50;;;20.90;99.90;;;;;;5035644;28;20041;-39
2023/05/08 06:56:05;;;;;;;16.13;14.93;;;20.40;99.90;;;;;;5034626;28;20177;-38
2023/05/08 06:58:31;;;;;;;16.58;15.00;;;19.80;99.90;;;;;;5033305;28;20045;-41
2023/05/08 07:01:02;;;;;;;16.05;14.70;;;19.40;99.90;;;;;;5035157;28;20841;-44
2023/05/08 07:03:28;;;;;;;16.65;15.45;;;19.10;99.90;;;;;;5033859;28;20040;-45
2023/05/08 07:05:54;;;;;;;16.65;15.35;;;18.70;99.90;;;;;;5028539;28;20053;-42
2023/05/08 07:08:20;;;;;;;16.23;14.88;;;18.60;99.90;;;;;;5015583;28;20818;-45
2023/05/08 07:10:46;;;;;;;16.25;14.80;;;18.30;99.90;;;;;;5030564;28;20052;-43
2023/05/08 07:13:11;;;;;;;16.85;15.55;;;18.20;99.90;;;;;;5015397;28;20760;-43
2023/05/08 07:15:37;;;;;;;15.73;14.43;;;18.20;99.90;;;;;;5015113;28;20056;-48
2023/05/08 07:18:04;;;;;;;16.30;15.00;;;18.40;99.90;;;;;;5014486;28;20069;-47
2023/05/08 07:20:30;;;;;;;17.50;15.90;;;19.00;99.90;;;;;;5016751;28;20041;-49
2023/05/08 07:22:55;;;;;;;16.05;14.75;;;19.30;99.90;;;;;;5015784;28;20100;-38
2023/05/08 07:25:21;;;;;;;15.73;14.45;;;19.70;99.90;;;;;;5015803;28;20646;-43
2023/05/08 07:27:47;;;;;;;15.57;14.38;;;19.80;99.90;;;;;;5017612;28;20961;-46
2023/05/08 07:30:13;;;;;;;16.83;15.38;;;19.90;99.90;;;;;;5017160;28;20045;-45
2023/05/08 07:32:38;;;;;;;16.52;15.02;;;19.70;99.90;;;;;;5013090;28;20628;-47
2023/05/08 07:35:07;;;;;;;15.93;14.63;;;19.60;99.90;;;;;;5015383;28;20050;-38
2023/05/08 07:37:32;;;;;;;16.38;15.07;;;19.60;99.90;;;;;;5013712;28;20049;-45
2023/05/08 07:39:58;;;;;;;16.75;15.45;;;19.70;99.90;;;;;;5012317;28;20043;-40
2023/05/08 07:42:24;;;;;;;15.70;14.50;;;19.60;99.90;;;;;;5014550;28;20096;-43
2023/05/08 07:44:50;;;;;;;17.83;16.42;;;19.70;99.90;;;;;;5014347;28;20535;-42
2023/05/08 07:47:16;;;;;;;16.27;15.02;;;19.60;99.90;;;;;;5011533;28;20524;-48
2023/05/08 07:49:41;;;;;;;17.63;16.17;;;19.60;99.90;;;;;;5013014;28;20480;-38
2023/05/08 07:52:07;;;;;;;16.33;14.93;;;19.40;99.90;;;;;;5013029;28;20045;-46
2023/05/08 07:54:32;;;;;;;16.35;14.95;;;19.30;99.90;;;;;;5015544;28;20045;-45
2023/05/08 07:56:58;;;;;;;17.48;16.17;;;19.20;99.90;;;;;;5016071;28;20124;-42
2023/05/08 07:59:24;;;;;;;16.40;15.10;;;19.10;99.90;;;;;;4994665;28;20085;-39
2023/05/08 08:01:49;;;;;;;17.08;15.68;;;19.00;99.90;;;;;;5017789;28;20369;-45
2023/05/08 08:04:15;;;;;;;17.92;16.45;;;19.00;99.90;;;;;;5014145;28;20033;-39
2023/05/08 08:06:41;;;;;;;17.52;16.02;;;18.90;99.90;;;;;;5020502;28;20091;-43
2023/05/08 08:09:07;;;;;;;16.80;15.40;;;18.90;99.90;;;;;;4998323;28;20056;-48
2023/05/08 08:11:33;;;;;;;18.67;17.10;;;18.80;99.90;;;;;;5009762;28;20549;-45
2023/05/08 08:13:59;;;;;;;18.63;17.13;;;18.70;99.90;;;;;;5023491;28;20049;-38
2023/05/08 08:16:25;;;;;;;17.38;15.93;;;18.70;99.90;;;;;;5005891;28;20573;-43
2023/05/08 08:18:51;;;;;;;17.55;16.05;;;18.80;99.90;;;;;;5018723;28;20087;-40
2023/05/08 08:21:18;;;;;;;17.98;16.48;;;18.90;99.90;;;;;;5025417;28;20084;-44
2023/05/08 08:23:43;;;;;;;16.95;15.45;;;18.90;99.90;;;;;;5017945;28;20805;-42
2023/05/08 08:26:09;;;;;;;18.60;17.10;;;19.00;99.90;;;;;;5022923;28;20049;-39
2023/05/08 08:28:34;;;;;;;18.27;16.80;;;19.10;99.90;;;;;;5017119;28;20049;-40
2023/05/08 08:31:00;;;;;;;18.67;17.17;;;19.20;99.90;;;;;;5018042;28;20088;-47
2023/05/08 08:33:27;;;;;;;17.85;16.35;;;19.20;99.90;;;;;;5004607;28;20044;-43
2023/05/08 08:35:53;;;;;;;18.98;17.20;;;19.40;99.90;;;;;;5036018;28;20585;-42
2023/05/08 08:38:19;;;;;;;18.30;16.80;;;19.60;99.90;;;;;;5034277;28;20041;-46
2023/05/08 08:40:44;;;;;;;18.67;17.25;;;19.60;99.90;;;;;;5011874;28;20120;-38
2023/05/08 08:43:10;;;;;;;19.00;17.50;;;19.70;99.90;;;;;;5033609;28;20215;-46
2023/05/08 08:45:36;;;;;;;18.50;16.98;;;19.90;99.90;;;;;;5013140;28;20072;-41
2023/05/08 08:48:03;;;;;;;17.63;16.33;;;19.90;99.90;;;;;;5028809;28;20063;-43
2023/05/08 08:50:34;;;;;;;18.55;17.05;;;20.10;99.90;;;;;;5036306;28;20155;-40
2023/05/08 08:53:10;;;;;;;18.45;16.95;;;20.40;99.90;;;;;;5036403;28;20053;-45
2023/05/08 08:55:41;;;;;;;19.13;17.63;;;20.30;99.90;;;;;;5019295;28;20048;-40
2023/05/08 08:58:16;;;;;;;19.35;17.75;;;20.50;99.90;;;;;;5019031;28;20605;-45
2023/05/08 09:00:42;;;;;;;18.80;17.20;;;20.50;99.90;;;;;;5018945;28;20708;-41
2023/05/08 09:03:09;;;;;;;20.25;18.60;;;20.30;99.90;;;;;;5031803;28;20041;-44
2023/05/08 09:05:35;;;;;;;18.77;17.35;;;20.40;99.90;;;;;;5035643;28;20094;-47
2023/05/08 09:08:01;;;;;;;18.55;17.10;;;20.20;99.90;;;;;;5034714;28;20053;-49
2023/05/08 09:10:27;;;;;;;18.90;17.38;;;20.30;99.90;;;;;;5036405;28;20561;-47
2023/05/08 09:12:53;;;;;;;20.05;18.48;;;20.70;99.90;;;;;;5028493;28;20080;-46
2023/05/08 09:15:19;;;;;;;19.08;17.58;;;20.80;99.90;;;;;;5025468;28;20056;-40
2023/05/08 09:17:44;;;;;;;19.63;18.02;;;21.00;99.90;;;;;;5035006;28;20160;-40
2023/05/08 09:20:13;;;;;;;20.55;18.85;;;21.00;99.90;;;;;;5034506;28;20487;-37
2023/05/08 09:22:39;;;;;;;18.17;16.77;;;21.30;99.90;;;;;;5010758;28;20103;-46
2023/05/08 09:25:06;;;;;;;20.98;19.33;;;21.40;99.90;;;;;;5019467;28;20045;-42
2023/05/08 09:27:32;;;;;;;20.02;18.42;;;21.40;99.90;;;;;;5033305;28;20533;-42
2023/05/08 09:30:00;;;;;;;21.30;19.33;;;21.50;99.90;;;;;;5033495;28;20057;-46
2023/05/08 09:32:30;;;;;;;21.77;19.98;;;21.50;99.90;;;;;;5036086;28;20048;-40
2023/05/08 09:34:56;;;;;;;22.40;20.58;;;21.30;99.90;;;;;;5017628;28;20163;-37
2023/05/08 09:37:22;;;;;;;20.33;18.63;;;21.40;99.90;;;;;;5017512;28;20495;-47
2023/05/08 09:39:48;;;;;;;20.50;18.90;;;21.50;99.90;;;;;;5035592;28;20138;-43
2023/05/08 09:42:14;;;;;;;21.90;20.17;;;21.50;99.90;;;;;;5033546;28;20064;-44
2023/05/08 09:44:45;;;;;;;21.67;19.88;;;21.70;99.90;;;;;;5034255;28;20084;-44
2023/05/08 09:47:12;;;;;;;21.45;19.75;;;21.70;99.90;;;;;;5034675;28;20129;-46
2023/05/08 09:49:39;;;;;;;22.90;20.80;;;21.70;99.90;;;;;;5014646;28;20067;-45
2023/05/08 09:52:07;;;;;;;23.05;21.17;;;21.80;99.90;;;;;;5034442;28;20053;-39
2023/05/08 09:54:33;;;;;;;24.15;22.10;;;21.70;99.90;;;;;;5035379;28;20060;-45
2023/05/08 09:56:59;;;;;;;22.77;20.95;;;21.60;99.90;;;;;;5027259;28;20045;-41
2023/05/08 09:59:26;;;;;;;23.42;21.55;;;21.60;99.90;;;;;;5031727;28;20045;-40
2023/05/08 10:01:53;;;;;;;23.63;21.83;;;21.70;99.90;;;;;;5015973;28;20040;-40
2023/05/08 10:04:35;;;;;;;23.00;21.20;;;21.50;99.90;;;;;;5033746;28;20114;-44
2023/05/08 10:07:02;;;;;;;24.10;21.88;;;21.70;99.90;;;;;;5033671;28;20049;-50
2023/05/08 10:09:28;;;;;;;25.70;23.63;;;21.60;99.90;;;;;;5032811;28;20056;-48
2023/05/08 10:11:54;;;;;;;24.77;22.73;;;21.60;99.90;;;;;;5014810;28;20061;-45
2023/05/08 10:14:23;;;;;;;24.83;22.73;;;21.60;99.90;;;;;;5033989;28;20045;-47
2023/05/08 10:16:52;;;;;;;25.95;23.85;;;21.60;99.90;;;;;;5035239;28;20110;-49
2023/05/08 10:19:20;;;;;;;26.73;24.42;;;21.60;99.90;;;;;;5033761;28;20069;-46
2023/05/08 10:21:51;;;;;;;26.45;24.02;;;21.60;99.90;;;;;;5035763;28;20044;-38
2023/05/08 10:24:26;;;;;;;26.17;23.88;;;21.70;99.90;;;;;;5013807;28;20049;-42
2023/05/08 10:27:15;;;;;;;24.35;22.25;;;21.60;99.90;;;;;;5011288;28;20049;-37
2023/05/08 10:29:51;;;;;;;26.00;23.80;;;21.70;99.90;;;;;;5034082;28;20052;-43
2023/05/08 10:32:19;;;;;;;23.85;21.85;;;21.60;99.90;;;;;;5034169;28;20037;-41
2023/05/08 10:34:50;;;;;;;23.45;21.58;;;21.70;99.90;;;;;;5033721;28;20891;-41
2023/05/08 10:37:16;;;;;;;25.30;23.10;;;21.80;99.90;;;;;;5016727;28;20064;-49
2023/05/08 10:39:43;;;;;;;22.95;20.88;;;21.80;99.90;;;;;;5015396;28;20107;-43
2023/05/08 10:42:12;;;;;;;24.23;22.10;;;21.80;99.90;;;;;;5011225;28;20056;-43
2023/05/08 10:44:38;;;;;;;25.05;22.80;;;21.80;99.90;;;;;;5031735;28;20551;-40
2023/05/08 10:47:28;;;;;;;24.75;22.58;;;21.60;99.90;;;;;;5031885;28;20106;-39
2023/05/08 10:50:09;;;;;;;24.13;22.05;;;21.60;99.90;;;;;;5028750;28;20060;-44
2023/05/08 10:52:53;;;;;;;25.77;23.48;;;21.60;99.90;;;;;;5034129;28;20060;-45
2023/05/08 10:55:27;;;;;;;24.63;22.48;;;21.60;99.90;;;;;;5032631;28;20063;-45
2023/05/08 10:58:11;;;;;;;23.83;21.73;;;21.70;99.90;;;;;;5033331;28;20415;-44
2023/05/08 11:00:52;;;;;;;100.70;69.97;;;21.90;99.90;;;;;;5034476;28;20041;-48
2023/05/08 11:03:28;;;;;;;24.17;21.88;;;22.10;99.90;;;;;;5033497;28;20503;-47
2023/05/08 11:05:55;;;;;;;22.05;20.05;;;22.20;99.90;;;;;;5012886;28;20152;-47
2023/05/08 11:08:26;;;;;;;22.88;20.92;;;22.30;99.90;;;;;;5014258;28;20060;-39
2023/05/08 11:11:05;;;;;;;23.08;21.17;;;22.40;99.90;;;;;;5012305;28;20095;-40
2023/05/08 11:13:41;;;;;;;23.67;21.55;;;22.30;99.90;;;;;;5034096;28;20049;-49
2023/05/08 11:16:09;;;;;;;23.85;21.83;;;22.30;99.90;;;;;;5034207;28;20037;-49
2023/05/08 11:18:35;;;;;;;23.77;21.83;;;22.30;99.90;;;;;;5014879;28;20129;-39
2023/05/08 11:21:13;;;;;;;23.17;21.02;;;22.40;99.90;;;;;;5032887;28;20045;-48
2023/05/08 11:23:38;;;;;;;25.17;23.00;;;22.50;99.90;;;;;;5032655;28;20049;-38
2023/05/08 11:26:11;;;;;;;24.08;21.70;;;22.50;99.90;;;;;;5033456;28;20053;-48
2023/05/08 11:28:39;;;;;;;23.95;21.77;;;22.60;99.90;;;;;;5002843;28;20045;-48
2023/05/08 11:31:07;;;;;;;25.08;22.58;;;22.90;99.90;;;;;;5033394;28;20510;-44
2023/05/08 11:33:36;;;;;;;26.02;23.48;;;23.00;99.90;;;;;;5020831;28;20056;-42
2023/05/08 11:36:18;;;;;;;28.00;25.23;;;23.00;99.90;;;;;;5000541;28;20592;-41
2023/05/08 11:39:14;;;;;;;27.55;24.75;;;22.90;99.90;;;;;;5013368;28;20123;-41
2023/05/08 11:41:40;;;;;;;26.88;24.17;;;22.80;99.90;;;;;;5030204;28;20461;-49
2023/05/08 11:44:13;;;;;;;25.42;23.10;;;22.80;99.90;;;;;;5030977;28;20047;-47
2023/05/08 11:46:53;;;;;;;27.00;24.58;;;22.80;99.90;;;;;;5034689;28;20053;-44
2023/05/08 11:49:23;;;;;;;33.03;27.75;;;22.80;99.90;;;;;;5005265;28;20049;-46
2023/05/08 11:51:57;;;;;;;27.65;25.33;;;22.70;99.90;;;;;;5017527;28;20048;-43
2023/05/08 11:54:24;;;;;;;26.00;23.90;;;22.70;99.90;;;;;;5018606;28;20056;-45
2023/05/08 11:56:53;;;;;;;28.42;25.95;;;22.70;99.90;;;;;;5038211;28;20052;-47
2023/05/08 11:59:20;;;;;;;27.75;25.08;;;22.50;99.90;;;;;;5037029;28;20159;-42
2023/05/08 12:01:49;;;;;;;27.63;25.42;;;22.60;99.90;;;;;;5036980;28;20064;-48
2023/05/08 12:04:15;;;;;;;27.63;25.25;;;22.80;99.90;;;;;;5034908;28;20586;-45
2023/05/08 12:06:41;;;;;;;32.65;29.38;;;22.80;99.90;;;;;;5012021;28;20078;-45
2023/05/08 12:09:14;;;;;;;32.80;29.35;;;22.70;99.90;;;;;;5036235;28;20474;-46
2023/05/08 12:11:42;;;;;;;36.20;31.10;;;22.70;99.90;;;;;;5019607;28;20056;-42
2023/05/08 12:14:08;;;;;;;31.92;28.95;;;22.80;99.90;;;;;;5018300;28;20055;-48
2023/05/08 12:16:38;;;;;;;30.20;27.75;;;22.90;99.90;;;;;;5033342;28;20513;-38
2023/05/08 12:19:12;;;;;;;30.75;28.10;;;22.90;99.90;;;;;;5036432;28;20083;-45
2023/05/08 12:21:38;;;;;;;30.48;27.88;;;23.00;99.90;;;;;;5036196;28;20124;-43
2023/05/08 12:24:10;;;;;;;32.75;30.02;;;23.10;99.90;;;;;;5035520;28;20041;-41
2023/05/08 12:26:37;;;;;;;33.50;30.60;;;23.10;99.90;;;;;;5015530;28;20052;-38
2023/05/08 12:29:06;;;;;;;35.63;32.63;;;23.20;99.90;;;;;;5033264;28;20308;-48
2023/05/08 12:31:35;;;;;;;34.28;31.20;;;23.20;99.90;;;;;;5034368;28;20072;-40
2023/05/08 12:34:11;;;;;;;32.42;29.70;;;23.30;99.90;;;;;;5016110;28;20598;-51
2023/05/08 12:36:37;;;;;;;34.60;31.80;;;23.50;99.90;;;;;;5035475;28;20392;-48
2023/05/08 12:39:13;;;;;;;35.92;32.83;;;23.50;99.90;;;;;;5035498;28;20045;-41